ADDS METAR Data INFO
IDs: Format: Raw Decoded Include TAF

Data at: 1415 UTC 12 Dec 2017

KMUT 121355Z AUTO 30011KT 10SM CLR M08/M11 A3024 RMK AO2
KMUT 121335Z AUTO 29011KT 10SM CLR M09/M11 A3023 RMK AO2
KMUT 121315Z AUTO 29009KT 10SM CLR M08/M11 A3023 RMK AO2
KMUT 121255Z AUTO 30010KT 10SM CLR M08/M10 A3023 RMK AO2
KMUT 121235Z AUTO 31009KT 10SM CLR M08/M10 A3023 RMK AO2
KMUT 121215Z AUTO 31009KT 10SM CLR M07/M10 A3022 RMK AO2
KMUT 121155Z AUTO 31009KT 10SM CLR M07/M11 A3022 RMK AO2
KMUT 121135Z AUTO 32009KT 10SM CLR M07/M12 A3021 RMK AO2
KMUT 121115Z AUTO 32011KT 10SM CLR M06/M12 A3020 RMK AO2
KMUT 121055Z AUTO 31011G16KT 10SM CLR M06/M11 A3020 RMK AO2
KMUT 121035Z AUTO 32012KT 10SM CLR M06/M11 A3020 RMK AO2
KMUT 121015Z AUTO 32014G20KT 10SM CLR M06/M10 A3019 RMK AO2
KMUT 120955Z AUTO 32015KT 10SM CLR M05/M10 A3019 RMK AO2
KMUT 120935Z AUTO 32011G16KT 10SM CLR M05/M10 A3019 RMK AO2
KMUT 120915Z AUTO 32010KT 10SM CLR M05/M10 A3019 RMK AO2
KMUT 120855Z AUTO 33013G18KT 10SM CLR M05/M10 A3018 RMK AO2
KMUT 120835Z AUTO 34014G22KT 10SM CLR M04/M10 A3018 RMK AO2
KMUT 120815Z AUTO 33014G20KT 10SM CLR M04/M09 A3018 RMK AO2
KMUT 120755Z AUTO 32014G21KT 10SM CLR M04/M09 A3017 RMK AO2
KMUT 120735Z AUTO 32015G21KT 10SM CLR M03/M09 A3017 RMK AO2
KMUT 120715Z AUTO 33014G22KT 10SM SCT033 M03/M09 A3015 RMK AO2
KMUT 120655Z AUTO 33013G23KT 10SM SCT033 M03/M08 A3015 RMK AO2
KMUT 120635Z AUTO 33015G27KT 10SM SCT033 M02/M08 A3014 RMK AO2
KMUT 120615Z AUTO 34015G22KT 10SM OVC033 M01/M08 A3012 RMK AO2
KMUT 120555Z AUTO 35019G25KT 10SM BKN033 M01/M08 A3011 RMK AO2
KMUT 120535Z AUTO 34017G26KT 10SM OVC034 M00/M07 A3011 RMK AO2
KMUT 120515Z AUTO 34021G28KT 10SM OVC035 00/M07 A3010 RMK AO2
KMUT 120455Z AUTO 34021KT 10SM OVC035 01/M06 A3009 RMK AO2
KMUT 120435Z AUTO 33017G28KT 10SM OVC034 02/M05 A3008 RMK AO2
KMUT 120415Z AUTO 33016G25KT 10SM OVC033 02/M04 A3006 RMK AO2
KMUT 120355Z AUTO 34014G22KT 10SM OVC032 02/M04 A3006 RMK AO2
KMUT 120335Z AUTO 33019G25KT 10SM OVC029 02/M03 A3005 RMK AO2
KMUT 120315Z AUTO 34023KT 10SM OVC026 02/M03 A3004 RMK AO2
KMUT 120255Z AUTO 34020G30KT 10SM OVC025 02/M03 A3003 RMK AO2
KMUT 120235Z AUTO 33019G26KT 10SM OVC023 02/M02 A3001 RMK AO2
KMUT 120215Z AUTO 33017G24KT 10SM OVC023 03/M01 A2999 RMK AO2
KMUT 120155Z AUTO 33014G25KT 10SM BKN020 OVC025 03/M01 A2998 RMK AO2
KMUT 120135Z AUTO 33018G25KT 10SM OVC018 03/M00 A2996 RMK AO2
KMUT 120115Z AUTO 33014G22KT 10SM OVC017 03/01 A2995 RMK AO2
KMUT 120055Z AUTO 32012KT 10SM OVC014 03/01 A2994 RMK AO2
KMUT 120035Z AUTO 33013G22KT 10SM OVC016 03/01 A2993 RMK AO2
KMUT 120015Z AUTO 32013KT 10SM OVC015 03/01 A2992 RMK AO2
KMUT 112355Z AUTO 31013KT 10SM OVC013 03/01 A2990 RMK AO2
KMUT 112335Z AUTO 31012KT 10SM OVC015 03/01 A2989 RMK AO2
KMUT 112315Z AUTO 31014G19KT 10SM SCT009 OVC018 02/01 A2988 RMK AO2
KMUT 112255Z AUTO 31013G20KT 7SM -RA BKN010 OVC022 02/01 A2987 RMK AO2
KMUT 112235Z AUTO 31013G19KT 9SM -RA OVC011 02/01 A2985 RMK AO2
KMUT 112215Z AUTO 31014KT 9SM -RA BKN013 OVC019 03/01 A2984 RMK AO2
KMUT 112155Z AUTO 32016G22KT 9SM -RA BKN020 BKN041 BKN049 04/01 A2983 RMK AO2
KMUT 112135Z AUTO 31015G20KT 10SM FEW021 BKN036 OVC075 04/01 A2981 RMK AO2
KMUT 112115Z AUTO 32019G29KT 7SM -RA FEW020 BKN038 OVC046 04/00 A2980 RMK AO2
KMUT 112055Z AUTO 31020G31KT 10SM FEW039 BKN046 OVC080 06/M01 A2977 RMK AO2
KMUT 112035Z AUTO 31022G27KT 10SM SCT060 OVC080 06/M02 A2976 RMK AO2
KMUT 112015Z AUTO 32017KT 10SM SCT070 OVC080 06/M03 A2974 RMK AO2
KMUT 111955Z AUTO 30018G26KT 10SM SCT070 BKN120 07/M03 A2973 RMK AO2
KMUT 111935Z AUTO 31017G22KT 10SM FEW090 OVC110 07/M04 A2972 RMK AO2
KMUT 111915Z AUTO 31015G24KT 10SM OVC110 07/M04 A2971 RMK AO2
KMUT 111855Z AUTO 30020G27KT 10SM SCT120 07/M04 A2970 RMK AO2
KMUT 111835Z AUTO 29019G26KT 10SM CLR 07/M04 A2970 RMK AO2
KMUT 111815Z AUTO 29019KT 10SM CLR 07/M04 A2969 RMK AO2
KMUT 111755Z AUTO 28012KT 10SM CLR 07/M03 A2969 RMK AO2
KMUT 111735Z AUTO 27011KT 10SM CLR 07/M03 A2969 RMK AO2
KMUT 111715Z AUTO VRB04KT 10SM CLR 06/M03 A2969 RMK AO2
KMUT 111655Z AUTO 25005G12KT 10SM CLR 05/M04 A2970 RMK AO2
KMUT 111635Z AUTO 00000KT 10SM CLR 04/M03 A2972 RMK AO2
KMUT 111615Z AUTO 00000KT 10SM CLR 03/M03 A2974 RMK AO2
KMUT 111555Z AUTO 16005KT 10SM CLR 02/M03 A2973 RMK AO2
KMUT 111535Z AUTO 14003KT 10SM CLR 02/M03 A2975 RMK AO2
KMUT 111515Z AUTO 13003KT 10SM CLR 02/M03 A2976 RMK AO2
KMUT 111455Z AUTO 00000KT 10SM CLR 01/M03 A2976 RMK AO2
KMUT 111435Z AUTO 00000KT 10SM CLR 01/M04 A2977 RMK AO2
KMUT 111415Z AUTO 16005KT 10SM CLR 00/M04 A2978 RMK AO2
KMUT 111355Z AUTO 17009KT 10SM CLR M00/M04 A2979 RMK AO2
KMUT 111335Z AUTO 14006KT 10SM CLR M00/M04 A2981 RMK AO2
KMUT 111315Z AUTO 14004KT 10SM CLR M00/M04 A2984 RMK AO2
KMUT 111255Z AUTO 12004KT 10SM FEW100 FEW120 M00/M04 A2985 RMK AO2
KMUT 111235Z AUTO 16004KT 10SM BKN110 00/M04 A2987 RMK AO2
KMUT 111215Z AUTO 18006KT 10SM BKN100 BKN120 M00/M04 A2988 RMK AO2
KMUT 111155Z AUTO 17006KT 10SM SCT110 M00/M04 A2989 RMK AO2
KMUT 111135Z AUTO 15004KT 10SM FEW120 M00/M04 A2992 RMK AO2
KMUT 111115Z AUTO 00000KT 10SM FEW090 SCT110 M01/M04 A2994 RMK AO2
KMUT 111055Z AUTO 00000KT 10SM OVC110 M01/M04 A2995 RMK AO2
KMUT 111035Z AUTO 00000KT 10SM BKN110 M02/M04 A2996 RMK AO2
KMUT 111015Z AUTO 00000KT 10SM FEW120 M02/M05 A2997 RMK AO2
KMUT 110955Z AUTO 00000KT 10SM SCT120 M02/M04 A2997 RMK AO2
KMUT 110935Z AUTO 00000KT 10SM SCT120 M02/M04 A3000 RMK AO2
KMUT 110915Z AUTO 00000KT 10SM CLR M02/M05 A3001 RMK AO2
KMUT 110855Z AUTO 00000KT 10SM CLR M02/M05 A3001 RMK AO2
KMUT 110835Z AUTO 00000KT 10SM FEW110 M01/M05 A3004 RMK AO2
KMUT 110815Z AUTO 17004KT 10SM CLR M01/M05 A3003 RMK AO2
KMUT 110755Z AUTO 16005KT 10SM CLR M01/M05 A3004 RMK AO2
KMUT 110735Z AUTO 17004KT 10SM CLR M01/M04 A3005 RMK AO2
KMUT 110715Z AUTO 20004KT 10SM CLR M01/M04 A3006 RMK AO2
KMUT 110655Z AUTO 17004KT 10SM CLR M01/M04 A3006 RMK AO2
KMUT 110635Z AUTO 16005KT 10SM FEW100 FEW120 M01/M04 A3006 RMK AO2
KMUT 110615Z AUTO 18005KT 10SM SCT090 M01/M04 A3008 RMK AO2
KMUT 110555Z AUTO 18004KT 10SM OVC090 M01/M04 A3008 RMK AO2
KMUT 110535Z AUTO 00000KT 10SM OVC095 M01/M05 A3008 RMK AO2
KMUT 110515Z AUTO 14003KT 10SM OVC095 M01/M05 A3008 RMK AO2
KMUT 110455Z AUTO 00000KT 10SM OVC100 M02/M04 A3009 RMK AO2
KMUT 110435Z AUTO 00000KT 10SM OVC100 M02/M04 A3011 RMK AO2
KMUT 110415Z AUTO 00000KT 10SM OVC110 M02/M05 A3011 RMK AO2
KMUT 110355Z AUTO 00000KT 10SM OVC110 M02/M05 A3012 RMK AO2
KMUT 110335Z AUTO 00000KT 10SM OVC110 M02/M05 A3012 RMK AO2
KMUT 110315Z AUTO 00000KT 10SM OVC110 M03/M06 A3012 RMK AO2
KMUT 110255Z AUTO 00000KT 10SM OVC110 M03/M06 A3012 RMK AO2
KMUT 110235Z AUTO 00000KT 10SM BKN120 M03/M06 A3012 RMK AO2